createdAt,value
2023-02-14T00:00:29.644Z,7.62
2023-02-14T00:02:57.110Z,7.58
2023-02-14T00:05:24.026Z,6.99
2023-02-14T00:07:50.621Z,6.92
2023-02-14T00:10:17.626Z,7.30
2023-02-14T00:12:44.178Z,7.40
2023-02-14T00:15:23.654Z,7.45
2023-02-14T00:17:51.750Z,7.57
2023-02-14T00:20:18.675Z,7.62
2023-02-14T00:22:45.253Z,7.63
2023-02-14T00:25:11.993Z,7.60
2023-02-14T00:27:38.716Z,7.62
2023-02-14T00:30:07.731Z,7.54
2023-02-14T00:32:34.520Z,7.51
2023-02-14T00:35:01.717Z,7.55
2023-02-14T00:37:28.267Z,7.66
2023-02-14T00:39:54.803Z,7.77
2023-02-14T00:42:21.349Z,7.65
2023-02-14T00:44:47.912Z,7.65
2023-02-14T00:47:14.498Z,7.84
2023-02-14T00:49:41.131Z,7.74
2023-02-14T00:52:07.655Z,7.70
2023-02-14T00:54:34.226Z,7.58
2023-02-14T00:57:00.751Z,7.46
2023-02-14T00:59:28.648Z,7.47
2023-02-14T01:01:55.264Z,7.51
2023-02-14T01:04:21.796Z,7.59
2023-02-14T01:06:48.356Z,7.65
2023-02-14T01:09:14.928Z,7.67
2023-02-14T01:11:41.698Z,7.68
2023-02-14T01:14:08.381Z,7.80
2023-02-14T01:16:36.606Z,7.81
2023-02-14T01:19:03.283Z,7.85
2023-02-14T01:21:32.739Z,7.90
2023-02-14T01:24:03.618Z,7.64
2023-02-14T01:26:30.301Z,7.48
2023-02-14T01:28:57.284Z,7.62
2023-02-14T01:31:32.465Z,7.36
2023-02-14T01:33:59.710Z,7.48
2023-02-14T01:36:38.859Z,7.47
2023-02-14T01:39:08.704Z,7.47
2023-02-14T01:41:37.506Z,7.58
2023-02-14T01:44:08.095Z,7.57
2023-02-14T01:46:37.507Z,7.60
2023-02-14T01:49:20.765Z,7.53
2023-02-14T01:51:52.785Z,7.57
2023-02-14T01:54:22.158Z,7.42
2023-02-14T01:56:54.065Z,7.47
2023-02-14T01:59:25.153Z,7.48
2023-02-14T02:01:53.262Z,7.43
2023-02-14T02:04:35.780Z,7.48
2023-02-14T02:07:17.808Z,7.48
2023-02-14T02:09:52.848Z,7.50
2023-02-14T02:12:20.108Z,7.51
2023-02-14T02:14:48.504Z,7.45
2023-02-14T02:17:44.302Z,7.50
2023-02-14T02:21:18.744Z,7.49
2023-02-14T02:24:04.767Z,7.60
2023-02-14T02:26:58.914Z,6.96
2023-02-14T02:30:02.906Z,7.24
2023-02-14T02:32:49.668Z,7.20
2023-02-14T02:35:22.118Z,7.06
2023-02-14T02:38:14.716Z,7.22
2023-02-14T02:40:50.038Z,7.31
2023-02-14T02:43:32.981Z,7.34
2023-02-14T02:46:29.100Z,7.40
2023-02-14T02:49:06.554Z,7.40
2023-02-14T02:52:03.244Z,7.41
2023-02-14T02:54:37.879Z,7.37
2023-02-14T02:57:09.240Z,7.29
2023-02-14T02:59:41.507Z,6.98
2023-02-14T03:02:13.715Z,7.18
2023-02-14T03:04:53.523Z,7.23
2023-02-14T03:07:36.584Z,7.40
2023-02-14T03:10:15.486Z,7.38
2023-02-14T03:12:46.320Z,7.32
2023-02-14T03:15:18.746Z,7.37
2023-02-14T03:18:20.207Z,7.30
2023-02-14T03:20:55.136Z,7.24
2023-02-14T03:23:27.645Z,7.33
2023-02-14T03:26:09.357Z,7.38
2023-02-14T03:28:45.026Z,7.22
2023-02-14T03:31:27.563Z,7.33
2023-02-14T03:34:09.012Z,7.34
2023-02-14T03:36:41.609Z,7.27
2023-02-14T03:39:15.315Z,7.29
2023-02-14T03:42:06.167Z,7.33
2023-02-14T03:44:36.395Z,7.19
2023-02-14T03:47:09.119Z,7.24
2023-02-14T03:49:40.545Z,7.15
2023-02-14T03:52:09.537Z,7.13
2023-02-14T03:54:36.514Z,7.10
2023-02-14T03:57:18.299Z,7.18
2023-02-14T03:59:45.002Z,7.10
2023-02-14T04:02:19.762Z,7.10
2023-02-14T04:04:49.445Z,7.08
2023-02-14T04:07:18.381Z,6.79
2023-02-14T04:09:45.593Z,6.83
2023-02-14T04:12:13.003Z,6.93
2023-02-14T04:14:39.545Z,6.92
2023-02-14T04:17:25.296Z,6.94
2023-02-14T04:19:51.914Z,6.84
2023-02-14T04:22:19.167Z,6.96
2023-02-14T04:24:45.756Z,7.01
2023-02-14T04:27:12.419Z,7.03
2023-02-14T04:29:44.181Z,7.02
2023-02-14T04:32:14.221Z,7.13
2023-02-14T04:34:41.256Z,7.12
2023-02-14T04:37:07.956Z,7.04
2023-02-14T04:39:35.128Z,7.11
2023-02-14T04:42:02.304Z,6.85
2023-02-14T04:44:28.917Z,7.11
2023-02-14T04:46:55.751Z,7.18
2023-02-14T04:49:22.450Z,7.19
2023-02-14T04:51:48.970Z,7.15
2023-02-14T04:54:15.500Z,7.20
2023-02-14T04:56:42.291Z,7.18
2023-02-14T04:59:08.977Z,7.11
2023-02-14T05:01:35.624Z,7.17
2023-02-14T05:04:02.388Z,7.14
2023-02-14T05:06:28.985Z,7.13
2023-02-14T05:08:56.662Z,7.07
2023-02-14T05:11:23.370Z,7.14
2023-02-14T05:13:50.012Z,7.12
2023-02-14T05:16:16.624Z,7.11
2023-02-14T05:18:43.246Z,7.07
2023-02-14T05:21:09.846Z,7.00
2023-02-14T05:23:36.424Z,6.94
2023-02-14T05:26:03.158Z,6.87
2023-02-14T05:28:29.755Z,6.69
2023-02-14T05:30:59.552Z,6.48
2023-02-14T05:33:26.651Z,6.65
2023-02-14T05:35:53.313Z,6.71
2023-02-14T05:38:20.265Z,6.81
2023-02-14T05:40:46.781Z,6.82
2023-02-14T05:43:13.389Z,6.85
2023-02-14T05:45:40.151Z,6.74
2023-02-14T05:48:07.087Z,6.56
2023-02-14T05:50:33.800Z,6.50
2023-02-14T05:53:00.862Z,6.55
2023-02-14T05:55:27.466Z,6.61
2023-02-14T05:57:54.259Z,6.52
2023-02-14T06:00:21.676Z,6.64
2023-02-14T06:02:48.246Z,6.58
2023-02-14T06:05:17.712Z,6.59
2023-02-14T06:07:50.327Z,6.37
2023-02-14T06:10:18.795Z,6.25
2023-02-14T06:12:46.268Z,6.36
2023-02-14T06:15:12.843Z,6.29
2023-02-14T06:17:39.547Z,6.14
2023-02-14T06:20:07.205Z,6.02
2023-02-14T06:22:33.764Z,6.08
2023-02-14T06:25:00.362Z,6.15
2023-02-14T06:27:28.412Z,6.19
2023-02-14T06:29:54.953Z,6.14
2023-02-14T06:32:21.497Z,6.38
2023-02-14T06:34:48.208Z,6.39
2023-02-14T06:37:14.847Z,6.53
2023-02-14T06:39:41.441Z,6.69
2023-02-14T06:42:08.023Z,6.74
2023-02-14T06:44:34.558Z,6.75
2023-02-14T06:47:01.186Z,6.65
2023-02-14T06:49:27.792Z,6.68
2023-02-14T06:51:54.340Z,6.60
2023-02-14T06:54:20.927Z,6.61
2023-02-14T06:56:47.512Z,6.66
2023-02-14T06:59:14.106Z,6.67
2023-02-14T07:01:40.717Z,6.79
2023-02-14T07:04:07.275Z,6.86
2023-02-14T07:06:33.938Z,6.86
2023-02-14T07:09:00.438Z,6.99
2023-02-14T07:11:28.491Z,7.02
2023-02-14T07:13:55.205Z,7.06
2023-02-14T07:16:21.723Z,7.08
2023-02-14T07:18:48.315Z,7.15
2023-02-14T07:21:14.991Z,7.26
2023-02-14T07:23:41.592Z,7.19
2023-02-14T07:26:08.145Z,7.18
2023-02-14T07:28:34.711Z,7.36
2023-02-14T07:31:02.021Z,7.19
2023-02-14T07:33:28.811Z,7.24
2023-02-14T07:35:55.451Z,7.31
2023-02-14T07:38:22.026Z,7.37
2023-02-14T07:40:48.604Z,7.38
2023-02-14T07:43:15.133Z,7.39
2023-02-14T07:45:41.652Z,7.49
2023-02-14T07:48:08.165Z,7.62
2023-02-14T07:50:34.713Z,7.65
2023-02-14T07:53:01.306Z,7.58
2023-02-14T07:55:27.852Z,7.64
2023-02-14T07:57:54.489Z,7.72
2023-02-14T08:00:21.449Z,7.91
2023-02-14T08:02:49.352Z,7.94
2023-02-14T08:05:16.059Z,7.93
2023-02-14T08:07:43.848Z,7.97
2023-02-14T08:10:12.851Z,8.03
2023-02-14T08:12:58.311Z,7.61
2023-02-14T08:15:51.310Z,7.58
2023-02-14T08:18:19.291Z,7.89
2023-02-14T08:20:49.849Z,7.99
2023-02-14T08:23:17.205Z,7.96
2023-02-14T08:25:43.816Z,7.90
2023-02-14T08:28:10.499Z,7.71
2023-02-14T08:30:38.159Z,7.56
2023-02-14T08:33:05.682Z,7.48
2023-02-14T08:35:32.221Z,7.73
2023-02-14T08:37:59.177Z,7.90
2023-02-14T08:40:25.798Z,8.11
2023-02-14T08:42:52.450Z,7.97
2023-02-14T08:45:19.067Z,8.16
2023-02-14T08:47:45.739Z,8.27
2023-02-14T08:50:15.831Z,8.52
2023-02-14T08:52:45.768Z,8.72
2023-02-14T08:55:13.475Z,8.88
2023-02-14T08:57:40.421Z,9.01
2023-02-14T09:00:08.385Z,9.23
2023-02-14T09:02:35.034Z,9.30
2023-02-14T09:05:01.800Z,9.35
2023-02-14T09:07:28.346Z,9.58
2023-02-14T09:09:54.933Z,9.65
2023-02-14T09:12:21.482Z,9.83
2023-02-14T09:14:48.111Z,9.26
2023-02-14T09:17:15.442Z,9.30
2023-02-14T09:19:42.738Z,9.34
2023-02-14T09:22:10.986Z,9.36
2023-02-14T09:24:39.209Z,9.57
2023-02-14T09:27:06.665Z,9.82
2023-02-14T09:29:34.246Z,9.95
2023-02-14T09:32:02.731Z,10.13
2023-02-14T09:34:29.967Z,10.37
2023-02-14T09:37:15.106Z,10.31
2023-02-14T09:39:41.622Z,10.42
2023-02-14T09:42:22.323Z,10.39
2023-02-14T09:45:01.187Z,10.06
2023-02-14T09:47:42.264Z,10.20
2023-02-14T09:50:34.394Z,10.30
2023-02-14T09:53:06.652Z,10.73
2023-02-14T09:55:42.432Z,11.02
2023-02-14T09:58:23.395Z,11.20
2023-02-14T10:01:00.859Z,11.38
2023-02-14T10:03:49.099Z,10.90
2023-02-14T10:06:18.514Z,10.60
2023-02-14T10:09:01.162Z,10.13
2023-02-14T10:11:28.590Z,10.29
2023-02-14T10:14:03.853Z,10.37
2023-02-14T10:16:40.333Z,10.45
2023-02-14T10:19:24.004Z,10.44
2023-02-14T10:21:57.000Z,10.27
2023-02-14T10:24:30.904Z,10.46
2023-02-14T10:27:03.051Z,10.73
2023-02-14T10:29:29.877Z,10.88
2023-02-14T10:32:02.325Z,10.98
2023-02-14T10:34:49.369Z,11.24
2023-02-14T10:37:37.951Z,11.40
2023-02-14T10:40:10.403Z,11.23
2023-02-14T10:42:56.974Z,11.07
2023-02-14T10:45:32.764Z,11.09
2023-02-14T10:48:18.609Z,11.54
2023-02-14T10:51:14.915Z,11.78
2023-02-14T10:53:53.234Z,12.15
2023-02-14T10:56:40.311Z,12.44
2023-02-14T10:59:21.750Z,12.22
2023-02-14T11:01:52.203Z,12.10
2023-02-14T11:04:21.577Z,12.79
2023-02-14T11:06:51.300Z,13.12
2023-02-14T11:09:18.529Z,13.99
2023-02-14T11:11:56.157Z,15.66
2023-02-14T11:14:32.394Z,17.07
2023-02-14T11:17:00.869Z,17.35
2023-02-14T11:19:31.378Z,17.62
2023-02-14T11:21:59.896Z,18.78
2023-02-14T11:24:32.084Z,20.65
2023-02-14T11:27:07.298Z,22.28
2023-02-14T11:29:45.050Z,23.91
2023-02-14T11:32:22.894Z,25.00
2023-02-14T11:34:59.619Z,24.98
2023-02-14T11:37:43.366Z,24.83
2023-02-14T11:40:36.795Z,24.99
2023-02-14T11:43:15.472Z,25.35
2023-02-14T11:45:44.032Z,26.36
2023-02-14T11:48:41.983Z,26.20
2023-02-14T11:51:13.937Z,26.60
2023-02-14T11:53:52.200Z,27.59
2023-02-14T11:56:20.850Z,27.77
2023-02-14T11:58:57.938Z,28.54
2023-02-14T12:01:38.502Z,29.70
2023-02-14T12:04:12.349Z,29.39
2023-02-14T12:06:39.157Z,29.04
2023-02-14T12:09:27.080Z,27.50
2023-02-14T12:12:03.061Z,28.07
2023-02-14T12:14:32.934Z,28.73
2023-02-14T12:17:11.666Z,28.50
2023-02-14T12:19:42.472Z,27.81
2023-02-14T12:22:16.457Z,27.40
2023-02-14T12:25:02.912Z,26.50
2023-02-14T12:27:44.493Z,26.14
2023-02-14T12:30:22.788Z,26.05
2023-02-14T12:32:56.349Z,25.06
2023-02-14T12:35:59.841Z,23.76
2023-02-14T12:38:46.690Z,24.08
2023-02-14T12:41:35.175Z,24.94
2023-02-14T12:44:48.145Z,25.16
2023-02-14T12:47:21.473Z,25.41
2023-02-14T12:50:23.393Z,25.35
2023-02-14T12:53:16.647Z,24.71
2023-02-14T12:56:12.163Z,23.24
2023-02-14T12:58:49.419Z,23.42
2023-02-14T13:01:38.860Z,23.78
2023-02-14T13:04:36.101Z,23.51
2023-02-14T13:07:11.720Z,24.47
2023-02-14T13:09:44.333Z,26.59
2023-02-14T13:12:34.985Z,27.60
2023-02-14T13:15:10.881Z,28.09
2023-02-14T13:17:56.543Z,28.38
2023-02-14T13:20:41.687Z,28.95
2023-02-14T13:23:48.549Z,28.91
2023-02-14T13:26:21.902Z,29.44
2023-02-14T13:29:20.527Z,30.08
2023-02-14T13:31:48.402Z,30.54
2023-02-14T13:34:34.920Z,29.60
2023-02-14T13:37:06.255Z,29.41
2023-02-14T13:39:38.380Z,28.06
2023-02-14T13:42:06.471Z,28.01
2023-02-14T13:44:44.590Z,27.36
2023-02-14T13:47:23.592Z,27.13
2023-02-14T13:49:57.922Z,26.63
2023-02-14T13:52:48.927Z,25.56
2023-02-14T13:55:22.873Z,24.09
2023-02-14T13:58:06.236Z,24.10
2023-02-14T14:00:47.338Z,23.30
2023-02-14T14:03:34.213Z,22.53
2023-02-14T14:06:12.749Z,22.83
2023-02-14T14:08:45.888Z,21.30
2023-02-14T14:11:34.937Z,21.56
2023-02-14T14:14:30.229Z,21.24
2023-02-14T14:16:59.331Z,21.89
2023-02-14T14:19:25.915Z,23.43
2023-02-14T14:22:07.434Z,23.32
2023-02-14T14:24:37.468Z,22.95
2023-02-14T14:27:12.483Z,22.46
2023-02-14T14:29:45.155Z,21.02
2023-02-14T14:32:18.200Z,20.94
2023-02-14T14:34:50.802Z,21.53
2023-02-14T14:37:20.792Z,21.21
2023-02-14T14:39:52.951Z,20.99
2023-02-14T14:42:20.727Z,21.18
2023-02-14T14:45:00.090Z,21.25
2023-02-14T14:47:40.272Z,23.46
2023-02-14T14:50:14.119Z,24.54
2023-02-14T14:52:43.713Z,24.52
2023-02-14T14:55:24.017Z,24.73
2023-02-14T14:58:06.041Z,25.53
2023-02-14T15:00:35.894Z,25.64
2023-02-14T15:03:09.780Z,25.14
2023-02-14T15:05:38.802Z,23.96
2023-02-14T15:08:14.620Z,23.43
2023-02-14T15:10:42.591Z,22.71
2023-02-14T15:13:32.319Z,21.92
2023-02-14T15:15:59.481Z,21.16
2023-02-14T15:18:26.121Z,20.51
2023-02-14T15:20:53.381Z,19.72
2023-02-14T15:23:23.944Z,18.71
2023-02-14T15:25:51.795Z,18.40
2023-02-14T15:28:28.659Z,17.99
2023-02-14T15:31:03.324Z,18.17
2023-02-14T15:33:31.878Z,18.03
2023-02-14T15:36:15.365Z,18.11
2023-02-14T15:38:43.251Z,18.07
2023-02-14T15:41:10.406Z,17.35
2023-02-14T15:43:37.758Z,16.73
2023-02-14T15:46:29.170Z,16.10
2023-02-14T15:49:00.730Z,15.93
2023-02-14T15:51:31.380Z,15.64
2023-02-14T15:54:05.433Z,15.49
2023-02-14T15:56:35.064Z,15.05
2023-02-14T15:59:07.209Z,14.92
2023-02-14T16:01:35.492Z,14.78
2023-02-14T16:04:05.343Z,14.64
2023-02-14T16:06:34.052Z,14.44
2023-02-14T16:09:01.453Z,14.25
2023-02-14T16:11:38.125Z,14.12
2023-02-14T16:14:32.302Z,13.98
2023-02-14T16:17:10.855Z,13.85
2023-02-14T16:19:43.143Z,13.71
2023-02-14T16:22:24.101Z,13.49
2023-02-14T16:24:50.858Z,13.35
2023-02-14T16:27:17.413Z,13.28
2023-02-14T16:29:43.939Z,13.06
2023-02-14T16:32:20.559Z,12.87
2023-02-14T16:34:48.308Z,12.68
2023-02-14T16:37:22.165Z,12.53
2023-02-14T16:39:50.900Z,12.42
2023-02-14T16:42:18.396Z,12.39
2023-02-14T16:44:46.291Z,12.30
2023-02-14T16:47:14.098Z,12.18
2023-02-14T16:49:40.806Z,12.07
2023-02-14T16:52:14.270Z,11.84
2023-02-14T16:54:40.863Z,11.60
2023-02-14T16:57:12.679Z,11.55
2023-02-14T16:59:39.256Z,11.26
2023-02-14T17:02:05.965Z,11.08
2023-02-14T17:04:32.518Z,10.91
2023-02-14T17:07:05.620Z,10.77
2023-02-14T17:09:38.115Z,10.81
2023-02-14T17:12:13.187Z,10.76
2023-02-14T17:14:43.369Z,10.73
2023-02-14T17:17:10.780Z,10.49
2023-02-14T17:19:37.330Z,10.31
2023-02-14T17:22:04.535Z,10.29
2023-02-14T17:24:31.644Z,10.30
2023-02-14T17:26:58.315Z,10.23
2023-02-14T17:29:24.954Z,10.06
2023-02-14T17:31:51.560Z,9.95
2023-02-14T17:34:18.576Z,9.88
2023-02-14T17:36:45.445Z,9.72
2023-02-14T17:39:12.080Z,9.72
2023-02-14T17:41:39.454Z,9.64
2023-02-14T17:44:07.166Z,9.49
2023-02-14T17:46:33.833Z,9.31
2023-02-14T17:49:02.616Z,9.26
2023-02-14T17:51:29.578Z,9.16
2023-02-14T17:53:58.788Z,8.96
2023-02-14T17:56:26.444Z,8.95
2023-02-14T17:58:53.817Z,8.89
2023-02-14T18:01:26.312Z,8.90
2023-02-14T18:03:56.110Z,8.72
2023-02-14T18:06:23.095Z,8.73
2023-02-14T18:08:52.700Z,8.67
2023-02-14T18:11:20.897Z,8.60
2023-02-14T18:13:47.610Z,8.44
2023-02-14T18:16:16.914Z,8.42
2023-02-14T18:18:44.155Z,8.47
2023-02-14T18:21:12.646Z,8.39
2023-02-14T18:23:39.585Z,8.33
2023-02-14T18:26:10.793Z,8.29
2023-02-14T18:28:38.116Z,8.29
2023-02-14T18:31:13.772Z,8.31
2023-02-14T18:33:41.007Z,8.37
2023-02-14T18:36:13.395Z,8.50
2023-02-14T18:38:41.778Z,8.44
2023-02-14T18:41:12.169Z,8.45
2023-02-14T18:43:40.899Z,8.52
2023-02-14T18:46:19.732Z,8.55
2023-02-14T18:48:46.664Z,8.67
2023-02-14T18:51:17.564Z,8.75
2023-02-14T18:53:45.435Z,8.80
2023-02-14T18:56:20.919Z,8.83
2023-02-14T18:58:50.623Z,8.76
2023-02-14T19:01:20.997Z,8.84
2023-02-14T19:03:51.464Z,8.93
2023-02-14T19:06:18.808Z,9.09
2023-02-14T19:08:45.417Z,9.14
2023-02-14T19:11:23.688Z,9.05
2023-02-14T19:13:53.471Z,9.17
2023-02-14T19:16:26.643Z,9.17
2023-02-14T19:18:54.143Z,9.15
2023-02-14T19:21:24.277Z,9.10
2023-02-14T19:23:53.450Z,9.16
2023-02-14T19:26:24.228Z,9.10
2023-02-14T19:28:56.071Z,9.14
2023-02-14T19:31:23.186Z,9.20
2023-02-14T19:33:50.287Z,9.14
2023-02-14T19:36:19.642Z,9.19
2023-02-14T19:38:49.276Z,9.18
2023-02-14T19:41:23.061Z,9.19
2023-02-14T19:43:52.858Z,9.17
2023-02-14T19:46:21.203Z,9.13
2023-02-14T19:48:48.632Z,9.00
2023-02-14T19:51:26.586Z,9.01
2023-02-14T19:53:53.896Z,9.01
2023-02-14T19:56:24.979Z,8.94
2023-02-14T19:58:52.312Z,8.94
2023-02-14T20:01:30.548Z,8.95
2023-02-14T20:03:57.545Z,8.95
2023-02-14T20:06:25.403Z,8.88
2023-02-14T20:08:52.629Z,8.87
2023-02-14T20:11:32.871Z,8.88
2023-02-14T20:14:00.547Z,8.80
2023-02-14T20:16:29.483Z,8.75
2023-02-14T20:18:56.873Z,8.68
2023-02-14T20:21:28.266Z,8.73
2023-02-14T20:23:58.536Z,8.68
2023-02-14T20:26:25.426Z,8.67
2023-02-14T20:28:53.248Z,8.57
2023-02-14T20:31:20.254Z,8.59
2023-02-14T20:33:47.747Z,8.47
2023-02-14T20:36:14.611Z,8.55
2023-02-14T20:38:42.654Z,8.54
2023-02-14T20:41:13.942Z,8.59
2023-02-14T20:43:40.672Z,8.35
2023-02-14T20:46:07.698Z,8.46
2023-02-14T20:48:35.528Z,8.51
2023-02-14T20:51:16.249Z,8.47
2023-02-14T20:53:45.753Z,8.49
2023-02-14T20:56:13.368Z,8.50
2023-02-14T20:58:40.780Z,8.47
2023-02-14T21:01:13.103Z,8.46
2023-02-14T21:03:41.587Z,8.44
2023-02-14T21:06:11.468Z,8.53
2023-02-14T21:08:39.158Z,8.58
2023-02-14T21:11:07.616Z,8.56
2023-02-14T21:13:34.226Z,8.56
2023-02-14T21:16:05.483Z,8.60
2023-02-14T21:18:33.204Z,8.61
2023-02-14T21:21:14.784Z,8.59
2023-02-14T21:23:41.847Z,8.50
2023-02-14T21:26:08.530Z,8.49
2023-02-14T21:28:35.168Z,8.50
2023-02-14T21:31:05.891Z,8.44
2023-02-14T21:33:32.972Z,8.25
2023-02-14T21:36:32.269Z,8.36
2023-02-14T21:38:59.657Z,8.23
2023-02-14T21:41:29.253Z,8.28
2023-02-14T21:43:57.684Z,8.35
2023-02-14T21:46:31.051Z,8.48
2023-02-14T21:49:20.982Z,8.39
2023-02-14T21:51:47.996Z,8.36
2023-02-14T21:54:15.619Z,8.34
2023-02-14T21:56:42.272Z,8.28
2023-02-14T21:59:09.719Z,8.26
2023-02-14T22:01:38.888Z,8.37
2023-02-14T22:04:07.759Z,8.19
2023-02-14T22:06:37.167Z,8.31
2023-02-14T22:09:04.316Z,8.31
2023-02-14T22:11:31.163Z,8.28
2023-02-14T22:13:57.749Z,8.19
2023-02-14T22:16:25.653Z,8.26
2023-02-14T22:18:52.779Z,8.30
2023-02-14T22:21:22.310Z,8.33
2023-02-14T22:23:49.335Z,8.31
2023-02-14T22:26:18.946Z,8.33
2023-02-14T22:28:47.110Z,8.30
2023-02-14T22:31:14.961Z,8.06
2023-02-14T22:33:41.709Z,8.24
2023-02-14T22:36:09.157Z,8.22
2023-02-14T22:38:37.137Z,8.00
2023-02-14T22:41:14.462Z,8.14
2023-02-14T22:43:41.941Z,8.22
2023-02-14T22:46:12.006Z,8.32
2023-02-14T22:48:39.372Z,8.25
2023-02-14T22:51:12.921Z,8.31
2023-02-14T22:53:39.524Z,8.25
2023-02-14T22:56:11.118Z,8.36
2023-02-14T22:58:37.931Z,8.29
2023-02-14T23:01:04.653Z,8.37
2023-02-14T23:03:31.206Z,8.29
2023-02-14T23:05:58.064Z,8.29
2023-02-14T23:08:24.596Z,8.31
2023-02-14T23:10:51.145Z,8.38
2023-02-14T23:13:36.230Z,8.31
2023-02-14T23:16:21.148Z,8.34
2023-02-14T23:19:06.359Z,8.30
2023-02-14T23:21:51.529Z,8.34
2023-02-14T23:24:18.071Z,8.36
2023-02-14T23:26:44.608Z,8.29
2023-02-14T23:29:11.203Z,8.30
2023-02-14T23:31:37.885Z,8.29
2023-02-14T23:34:04.729Z,8.24
2023-02-14T23:36:31.513Z,8.39
2023-02-14T23:38:58.035Z,8.43
2023-02-14T23:41:43.517Z,8.32
2023-02-14T23:44:10.033Z,8.22
2023-02-14T23:46:36.563Z,8.27
2023-02-14T23:49:03.212Z,8.24
2023-02-14T23:51:29.895Z,8.23
2023-02-14T23:53:56.447Z,8.15
2023-02-14T23:56:23.544Z,8.19
2023-02-14T23:58:50.081Z,8.03
